Time;durP1;ratioP1;P1;durP2;ratioP2;P2;SDS_P1;SDS_P2;PMS_P1;PMS_P2;Temp;Humidity;BMP_temperature;BMP_pressure;BME280_temperature;BME280_humidity;BME280_pressure;Samples;Min_cycle;Max_cycle;Signal;HPM_P1;HPM_P2
2024/01/03 00:00:30;;;;;;;4.63;0.85;;;32.00;99.90;;;;;;4974840;28;20510;-73
2024/01/03 00:02:58;;;;;;;5.22;1.00;;;32.30;99.90;;;;;;4975978;28;20704;-73
2024/01/03 00:05:41;;;;;;;3.67;1.42;;;32.70;99.90;;;;;;4982988;28;20204;-72
2024/01/03 00:08:41;;;;;;;10.95;1.45;;;33.20;99.90;;;;;;4979586;28;20210;-73
2024/01/03 00:11:08;;;;;;;5.43;1.17;;;32.70;99.90;;;;;;4942031;28;20235;-72
2024/01/03 00:13:58;;;;;;;2.78;1.10;;;33.30;99.90;;;;;;4974340;28;20186;-73
2024/01/03 00:16:26;;;;;;;5.88;1.25;;;33.00;99.90;;;;;;4974643;28;20234;-73
2024/01/03 00:18:55;;;;;;;5.00;1.08;;;32.70;99.90;;;;;;4974394;28;20238;-73
2024/01/03 00:21:25;;;;;;;7.50;1.15;;;32.70;99.90;;;;;;4974437;28;20184;-73
2024/01/03 00:24:11;;;;;;;6.55;1.15;;;32.80;99.90;;;;;;4974776;28;20174;-73
2024/01/03 00:26:41;;;;;;;4.60;0.90;;;33.40;99.90;;;;;;4974413;28;20210;-73
2024/01/03 00:29:23;;;;;;;5.53;1.42;;;33.30;99.90;;;;;;4973977;28;20195;-72
2024/01/03 00:31:51;;;;;;;3.47;0.93;;;33.40;99.90;;;;;;4974207;28;20175;-73
2024/01/03 00:34:24;;;;;;;1.92;0.70;;;33.60;99.20;;;;;;4973937;28;20187;-73
2024/01/03 00:36:53;;;;;;;2.83;0.82;;;33.80;99.90;;;;;;4973657;28;20231;-73
2024/01/03 00:39:41;;;;;;;2.53;0.80;;;34.00;99.90;;;;;;4976410;28;20190;-73
2024/01/03 00:42:08;;;;;;;3.38;0.82;;;34.40;98.70;;;;;;4972949;28;20182;-72
2024/01/03 00:44:35;;;;;;;4.25;0.77;;;34.20;94.00;;;;;;4973987;28;20265;-72
2024/01/03 00:47:03;;;;;;;3.78;0.88;;;34.20;93.90;;;;;;4972893;28;20588;-73
2024/01/03 00:49:30;;;;;;;5.25;0.90;;;34.20;91.80;;;;;;4973996;28;20282;-72
2024/01/03 00:51:59;;;;;;;4.47;1.00;;;34.40;93.20;;;;;;4974156;28;20175;-72
2024/01/03 00:54:27;;;;;;;4.93;0.90;;;34.20;94.40;;;;;;4974072;28;20167;-72
2024/01/03 00:56:55;;;;;;;3.90;0.90;;;34.00;99.90;;;;;;4974426;28;20656;-72
2024/01/03 00:59:23;;;;;;;2.92;0.68;;;34.50;91.80;;;;;;4974818;28;20194;-70
2024/01/03 01:01:50;;;;;;;3.50;0.80;;;34.80;85.20;;;;;;4981952;28;20731;-70
2024/01/03 01:04:18;;;;;;;3.60;0.73;;;34.70;81.80;;;;;;4979416;28;20233;-71
2024/01/03 01:06:45;;;;;;;18.63;1.15;;;35.20;83.20;;;;;;4986614;28;20190;-71
2024/01/03 01:09:13;;;;;;;4.50;1.08;;;34.80;77.90;;;;;;4971784;28;20593;-70
2024/01/03 01:11:40;;;;;;;2.95;0.77;;;34.90;73.20;;;;;;4972636;28;20625;-70
2024/01/03 01:14:07;;;;;;;4.95;0.77;;;34.60;82.40;;;;;;4972595;28;20180;-70
2024/01/03 01:16:35;;;;;;;3.20;0.85;;;34.90;69.80;;;;;;4972410;28;20238;-72
2024/01/03 01:19:05;;;;;;;3.25;0.90;;;35.10;77.90;;;;;;4990414;28;20725;-71
2024/01/03 01:21:32;;;;;;;2.50;0.80;;;35.10;83.90;;;;;;4992124;28;20179;-72
2024/01/03 01:23:59;;;;;;;1.65;0.52;;;35.70;74.40;;;;;;4991699;28;20210;-71
2024/01/03 01:26:27;;;;;;;1.90;0.80;;;35.60;63.60;;;;;;4978491;28;20712;-70
2024/01/03 01:28:54;;;;;;;3.60;1.13;;;35.10;67.20;;;;;;4988384;28;20294;-71
2024/01/03 01:31:21;;;;;;;2.78;0.60;;;35.20;76.30;;;;;;4991558;28;20183;-71
2024/01/03 01:33:49;;;;;;;3.15;0.88;;;35.40;68.80;;;;;;4992038;28;20644;-71
2024/01/03 01:36:16;;;;;;;3.00;0.65;;;35.60;60.20;;;;;;4991365;28;20231;-70
2024/01/03 01:38:44;;;;;;;1.63;0.70;;;35.30;78.20;;;;;;4976508;28;20645;-71
2024/01/03 01:41:11;;;;;;;4.55;1.10;;;35.20;60.00;;;;;;4972670;28;20262;-71
2024/01/03 01:43:39;;;;;;;2.28;0.70;;;34.90;65.10;;;;;;4972553;28;20282;-71
2024/01/03 01:46:40;;;;;;;2.63;0.80;;;35.00;56.70;;;;;;4971970;28;20230;-70
2024/01/03 01:49:08;;;;;;;3.42;0.80;;;35.10;64.00;;;;;;4989265;28;20182;-71
2024/01/03 01:51:39;;;;;;;2.97;0.77;;;35.30;72.60;;;;;;4995061;28;20640;-70
2024/01/03 01:54:06;;;;;;;2.72;0.80;;;35.30;61.70;;;;;;4984569;28;20222;-70
2024/01/03 01:56:34;;;;;;;1.52;0.85;;;35.30;62.90;;;;;;4975293;28;20179;-70
2024/01/03 01:59:02;;;;;;;3.17;0.80;;;35.40;58.60;;;;;;4988785;28;20178;-70
2024/01/03 02:01:34;;;;;;;5.75;0.90;;;35.60;77.20;;;;;;4995084;28;20313;-70
2024/01/03 02:04:06;;;;;;;5.60;0.88;;;35.20;77.20;;;;;;4995313;28;20520;-71
2024/01/03 02:06:35;;;;;;;3.88;1.00;;;35.30;86.20;;;;;;4994186;28;20195;-71
2024/01/03 02:09:02;;;;;;;9.00;1.13;;;34.80;94.70;;;;;;4980098;28;20183;-71
2024/01/03 02:11:30;;;;;;;4.57;1.10;;;34.60;96.20;;;;;;4975534;28;20322;-70
2024/01/03 02:13:57;;;;;;;5.53;1.27;;;35.00;99.90;;;;;;4975164;28;20238;-72
2024/01/03 02:16:24;;;;;;;5.38;1.08;;;34.70;99.90;;;;;;4974281;28;20190;-71
2024/01/03 02:18:52;;;;;;;5.80;1.08;;;34.30;99.90;;;;;;4984435;28;20890;-70
2024/01/03 02:21:19;;;;;;;3.75;1.10;;;34.50;99.90;;;;;;4975008;28;20180;-71
2024/01/03 02:23:46;;;;;;;3.65;1.10;;;34.50;99.90;;;;;;4975622;28;20230;-70
2024/01/03 02:26:14;;;;;;;3.05;1.10;;;34.90;99.90;;;;;;4975451;28;20175;-70
2024/01/03 02:28:41;;;;;;;3.60;0.98;;;34.60;99.90;;;;;;4984223;28;20191;-70
2024/01/03 02:31:08;;;;;;;6.43;1.17;;;34.10;99.90;;;;;;4994704;28;20312;-70
2024/01/03 02:33:37;;;;;;;6.63;0.80;;;34.40;99.90;;;;;;4994723;28;20197;-71
2024/01/03 02:36:04;;;;;;;5.25;1.10;;;34.50;99.90;;;;;;4994005;28;20222;-71
2024/01/03 02:38:32;;;;;;;4.45;1.00;;;34.90;99.90;;;;;;4992871;28;20182;-71
2024/01/03 02:40:59;;;;;;;3.53;0.93;;;34.80;99.60;;;;;;4994452;28;20191;-70
2024/01/03 02:43:27;;;;;;;4.10;1.10;;;34.90;99.90;;;;;;4994158;28;20216;-71
2024/01/03 02:45:54;;;;;;;3.97;0.70;;;34.80;99.90;;;;;;4994432;28;20216;-71
2024/01/03 02:48:21;;;;;;;5.40;1.30;;;34.70;99.90;;;;;;4987001;28;20183;-70
2024/01/03 02:50:48;;;;;;;3.47;0.90;;;34.90;99.90;;;;;;4994041;28;20237;-71
2024/01/03 02:53:16;;;;;;;4.85;1.02;;;34.30;99.90;;;;;;4994073;28;20178;-70
2024/01/03 02:55:43;;;;;;;6.15;1.35;;;34.20;99.90;;;;;;4994292;28;20179;-70
2024/01/03 02:58:10;;;;;;;4.68;1.17;;;34.40;99.90;;;;;;4984187;28;20194;-70
2024/01/03 03:00:39;;;;;;;3.53;1.42;;;34.10;99.90;;;;;;4974090;28;20213;-70
2024/01/03 03:03:06;;;;;;;5.53;1.23;;;34.30;99.90;;;;;;4974548;28;20215;-71
2024/01/03 03:05:33;;;;;;;4.25;1.33;;;34.00;99.90;;;;;;4974601;28;20187;-71
2024/01/03 03:08:01;;;;;;;4.15;1.33;;;33.90;99.90;;;;;;4980481;28;20178;-70
2024/01/03 03:10:28;;;;;;;7.68;1.60;;;33.60;99.90;;;;;;4994016;28;20309;-70
2024/01/03 03:12:55;;;;;;;5.50;1.00;;;33.50;99.90;;;;;;4993872;28;20829;-70
2024/01/03 03:15:23;;;;;;;3.80;1.10;;;33.30;99.90;;;;;;4993549;28;20265;-70
2024/01/03 03:17:50;;;;;;;8.30;1.52;;;33.20;99.90;;;;;;4992455;28;20237;-70
2024/01/03 03:20:17;;;;;;;6.50;1.30;;;33.40;99.90;;;;;;4993824;28;20278;-70
2024/01/03 03:22:45;;;;;;;4.63;1.30;;;33.60;99.90;;;;;;4993236;28;20185;-70
2024/01/03 03:25:12;;;;;;;6.43;1.10;;;33.40;99.90;;;;;;4993741;28;20185;-70
2024/01/03 03:27:39;;;;;;;4.22;1.23;;;33.20;99.90;;;;;;4993364;28;20179;-70
2024/01/03 03:30:07;;;;;;;5.18;0.93;;;33.10;99.90;;;;;;4993135;28;20304;-70
2024/01/03 03:32:34;;;;;;;8.73;1.88;;;32.40;99.90;;;;;;4993392;28;20171;-70
2024/01/03 03:35:02;;;;;;;5.72;1.50;;;32.00;99.90;;;;;;4993473;28;20185;-70
2024/01/03 03:37:29;;;;;;;4.18;1.20;;;31.60;99.90;;;;;;4993262;28;20237;-70
2024/01/03 03:39:56;;;;;;;8.02;1.10;;;31.50;99.90;;;;;;4993384;28;20182;-70
2024/01/03 03:42:24;;;;;;;6.07;1.05;;;31.40;99.90;;;;;;4993788;28;20533;-70
2024/01/03 03:44:53;;;;;;;6.38;1.30;;;31.00;99.90;;;;;;4994612;28;20182;-70
2024/01/03 03:47:21;;;;;;;9.30;1.23;;;30.80;99.90;;;;;;4994292;28;20233;-70
2024/01/03 03:49:48;;;;;;;4.22;1.10;;;30.70;99.90;;;;;;4994071;28;20206;-71
2024/01/03 03:52:15;;;;;;;4.22;0.98;;;30.60;99.90;;;;;;4994261;28;20636;-73
2024/01/03 03:54:43;;;;;;;6.75;1.58;;;30.50;99.90;;;;;;4994167;28;20206;-73
2024/01/03 03:57:10;;;;;;;6.60;1.63;;;30.40;99.90;;;;;;4994256;28;20248;-73
2024/01/03 03:59:37;;;;;;;5.40;1.42;;;30.10;99.90;;;;;;4994119;28;20189;-73
2024/01/03 04:02:05;;;;;;;4.35;1.20;;;30.10;99.90;;;;;;4994243;28;20179;-73
2024/01/03 04:04:32;;;;;;;8.20;1.40;;;30.10;99.90;;;;;;4994015;28;20640;-73
2024/01/03 04:06:59;;;;;;;3.50;1.20;;;29.80;99.90;;;;;;4993786;28;20187;-73
2024/01/03 04:09:27;;;;;;;5.40;1.10;;;29.50;99.90;;;;;;4993636;28;20206;-73
2024/01/03 04:11:54;;;;;;;4.43;0.90;;;29.40;99.90;;;;;;4993552;28;20654;-73
2024/01/03 04:14:22;;;;;;;6.63;1.50;;;29.20;99.90;;;;;;4992603;28;20526;-73
2024/01/03 04:16:50;;;;;;;5.70;1.00;;;29.10;99.90;;;;;;4993834;28;20683;-73
2024/01/03 04:19:17;;;;;;;4.57;1.20;;;29.10;99.90;;;;;;4993545;28;20245;-73
2024/01/03 04:21:45;;;;;;;7.70;1.30;;;29.00;99.90;;;;;;4993593;28;20249;-74
2024/01/03 04:24:13;;;;;;;4.77;1.20;;;29.00;99.90;;;;;;4993834;28;20171;-73
2024/01/03 04:26:40;;;;;;;8.80;1.10;;;28.90;99.90;;;;;;4993745;28;20264;-73
2024/01/03 04:29:08;;;;;;;4.90;1.13;;;28.70;99.90;;;;;;4993526;28;20175;-74
2024/01/03 04:31:39;;;;;;;4.33;1.10;;;28.60;99.90;;;;;;4992547;28;20217;-74
2024/01/03 04:34:07;;;;;;;4.70;1.23;;;28.50;99.90;;;;;;4993706;28;20175;-73
2024/01/03 04:36:35;;;;;;;9.97;1.70;;;28.30;99.90;;;;;;4993331;28;20699;-73
2024/01/03 04:39:02;;;;;;;7.43;1.23;;;28.20;99.90;;;;;;4993515;28;20179;-73
2024/01/03 04:41:29;;;;;;;4.93;1.20;;;28.20;99.90;;;;;;4993603;28;20233;-74
2024/01/03 04:43:57;;;;;;;5.93;1.30;;;28.00;99.90;;;;;;4992068;28;20186;-73
2024/01/03 04:46:24;;;;;;;3.13;1.20;;;28.00;99.90;;;;;;4993457;28;20277;-73
2024/01/03 04:48:52;;;;;;;3.27;1.00;;;27.90;99.90;;;;;;4993425;28;20179;-73
2024/01/03 04:51:19;;;;;;;5.00;1.03;;;28.00;99.90;;;;;;4993434;28;20218;-74
2024/01/03 04:53:46;;;;;;;3.10;1.50;;;27.90;99.90;;;;;;4992255;28;20179;-73
2024/01/03 04:56:14;;;;;;;9.67;1.73;;;27.80;99.90;;;;;;4993248;28;20175;-73
2024/01/03 04:58:41;;;;;;;3.70;0.93;;;27.60;99.90;;;;;;4993386;28;20178;-73
2024/01/03 05:01:08;;;;;;;6.63;1.63;;;27.40;99.90;;;;;;4993579;28;20266;-73
2024/01/03 05:03:35;;;;;;;4.27;1.37;;;27.20;99.90;;;;;;4993857;28;20667;-74
2024/01/03 05:06:03;;;;;;;6.70;1.37;;;27.20;99.90;;;;;;4993332;28;20228;-73
2024/01/03 05:08:30;;;;;;;5.43;1.60;;;27.10;99.90;;;;;;4992961;28;20175;-73
2024/01/03 05:10:57;;;;;;;9.80;1.53;;;27.20;99.90;;;;;;4993146;28;20202;-73
2024/01/03 05:13:25;;;;;;;6.13;1.20;;;27.30;99.90;;;;;;4993280;28;20178;-73
2024/01/03 05:15:53;;;;;;;9.03;1.40;;;27.20;99.90;;;;;;4993130;28;20178;-72
2024/01/03 05:18:20;;;;;;;9.87;1.30;;;27.00;99.90;;;;;;4993068;28;20262;-72
2024/01/03 05:20:47;;;;;;;11.37;1.80;;;26.70;99.90;;;;;;4993206;28;20191;-73
2024/01/03 05:23:15;;;;;;;5.63;1.33;;;26.50;99.90;;;;;;4995104;28;20205;-72
2024/01/03 05:25:43;;;;;;;6.50;1.60;;;26.40;99.90;;;;;;4996760;28;20202;-72
2024/01/03 05:28:10;;;;;;;3.67;1.20;;;26.30;99.90;;;;;;4996814;28;20654;-72
2024/01/03 05:30:37;;;;;;;8.37;1.73;;;26.10;99.90;;;;;;4995828;28;20240;-72
2024/01/03 05:33:05;;;;;;;12.73;1.63;;;26.10;99.90;;;;;;4995545;28;20601;-72
2024/01/03 05:35:33;;;;;;;7.83;1.93;;;26.00;99.90;;;;;;4996825;28;20178;-72
2024/01/03 05:38:01;;;;;;;9.40;2.37;;;26.20;99.90;;;;;;4996760;28;20229;-72
2024/01/03 05:40:28;;;;;;;6.93;1.57;;;26.20;99.90;;;;;;4996805;28;20206;-72
2024/01/03 05:42:56;;;;;;;7.70;1.60;;;26.20;99.90;;;;;;4996481;28;20171;-72
2024/01/03 05:45:24;;;;;;;7.07;1.97;;;26.20;99.90;;;;;;4996654;28;20185;-72
2024/01/03 05:47:51;;;;;;;5.30;1.33;;;26.20;99.90;;;;;;4986785;28;20678;-72
2024/01/03 05:50:19;;;;;;;5.77;1.53;;;26.30;99.90;;;;;;4986552;28;20207;-72
2024/01/03 05:52:48;;;;;;;6.83;1.30;;;26.40;99.90;;;;;;4994903;28;20175;-72
2024/01/03 05:55:16;;;;;;;3.43;1.27;;;26.40;99.90;;;;;;4994873;28;20225;-72
2024/01/03 05:57:43;;;;;;;8.50;1.57;;;26.30;99.90;;;;;;4987538;28;20649;-72
2024/01/03 06:00:12;;;;;;;5.73;1.10;;;26.30;99.90;;;;;;4975416;28;20211;-72
2024/01/03 06:02:39;;;;;;;5.00;1.40;;;26.20;99.90;;;;;;4975333;28;20171;-72
2024/01/03 06:05:08;;;;;;;5.17;1.10;;;26.10;99.90;;;;;;4975314;28;20238;-73
2024/01/03 06:07:35;;;;;;;9.87;1.60;;;26.10;99.90;;;;;;4980496;28;20208;-73
2024/01/03 06:10:04;;;;;;;6.37;1.43;;;26.10;99.90;;;;;;4996092;28;20256;-72
2024/01/03 06:12:31;;;;;;;5.43;1.10;;;26.10;99.90;;;;;;4994490;28;20185;-72
2024/01/03 06:14:59;;;;;;;5.83;1.17;;;26.10;99.90;;;;;;4995078;28;20189;-72
2024/01/03 06:17:27;;;;;;;4.40;1.20;;;26.10;99.90;;;;;;4991588;28;20182;-72
2024/01/03 06:19:54;;;;;;;5.70;1.13;;;25.80;99.90;;;;;;4975078;28;20202;-73
2024/01/03 06:22:22;;;;;;;5.77;1.30;;;25.70;99.90;;;;;;4975162;28;20226;-72
2024/01/03 06:24:50;;;;;;;6.30;1.53;;;25.70;99.90;;;;;;4975425;28;20194;-72
2024/01/03 06:27:17;;;;;;;5.33;1.87;;;25.70;99.90;;;;;;4992086;28;20189;-72
2024/01/03 06:29:45;;;;;;;6.93;1.27;;;25.80;99.90;;;;;;4975325;28;20211;-72
2024/01/03 06:32:14;;;;;;;7.97;1.27;;;25.80;99.90;;;;;;4975028;28;20245;-72
2024/01/03 06:34:42;;;;;;;7.67;1.90;;;25.80;99.90;;;;;;4974150;28;20557;-72
2024/01/03 06:37:10;;;;;;;2.20;1.00;;;25.80;99.90;;;;;;4974871;28;20238;-72
2024/01/03 06:39:37;;;;;;;6.20;1.50;;;25.80;99.90;;;;;;4975141;28;20188;-72
2024/01/03 06:42:05;;;;;;;7.47;1.30;;;25.80;99.90;;;;;;4974673;28;20541;-72
2024/01/03 06:44:33;;;;;;;6.50;1.43;;;25.90;99.90;;;;;;4974701;28;20668;-72
2024/01/03 06:47:01;;;;;;;7.27;2.00;;;26.10;99.90;;;;;;4974892;28;20652;-72
2024/01/03 06:49:29;;;;;;;6.40;1.10;;;26.10;99.90;;;;;;4974311;28;20214;-72
2024/01/03 06:51:59;;;;;;;6.47;1.40;;;26.20;99.90;;;;;;4975050;28;20231;-72
2024/01/03 06:54:27;;;;;;;4.73;1.37;;;26.30;99.90;;;;;;4993145;28;20179;-72
2024/01/03 06:56:54;;;;;;;6.87;2.07;;;26.40;99.90;;;;;;4991934;28;20265;-73
2024/01/03 06:59:22;;;;;;;8.63;1.40;;;26.50;99.90;;;;;;4993931;28;20314;-73
2024/01/03 07:01:50;;;;;;;6.70;1.50;;;26.40;99.90;;;;;;4993860;28;20190;-73
2024/01/03 07:04:19;;;;;;;7.57;1.63;;;26.50;99.90;;;;;;4993598;28;20538;-73
2024/01/03 07:06:47;;;;;;;3.97;1.00;;;26.60;99.90;;;;;;4979393;28;20193;-72
2024/01/03 07:09:15;;;;;;;5.20;1.23;;;26.60;99.90;;;;;;4974478;28;20199;-72
2024/01/03 07:11:42;;;;;;;9.10;1.33;;;26.70;99.90;;;;;;4974081;28;20187;-72
2024/01/03 07:14:12;;;;;;;8.47;2.10;;;26.70;99.90;;;;;;4974540;28;20180;-73
2024/01/03 07:16:40;;;;;;;6.83;1.37;;;26.70;99.90;;;;;;4984498;28;20237;-73
2024/01/03 07:19:08;;;;;;;4.33;1.30;;;26.80;99.90;;;;;;4990617;28;20849;-73
2024/01/03 07:21:36;;;;;;;10.37;1.20;;;26.70;99.90;;;;;;4986950;28;20261;-72
2024/01/03 07:24:03;;;;;;;5.67;1.50;;;26.70;99.90;;;;;;4985857;28;20176;-74
2024/01/03 07:26:32;;;;;;;6.03;1.13;;;26.70;99.90;;;;;;4980412;28;20186;-73
2024/01/03 07:29:00;;;;;;;6.47;1.60;;;26.70;99.90;;;;;;4994313;28;20194;-73
2024/01/03 07:31:28;;;;;;;8.37;1.40;;;26.70;99.90;;;;;;4999308;28;20217;-75
2024/01/03 07:33:56;;;;;;;6.47;1.00;;;26.70;99.90;;;;;;4992036;28;20179;-71
2024/01/03 07:36:23;;;;;;;6.83;1.50;;;26.90;99.90;;;;;;4986530;28;20238;-71
2024/01/03 07:38:51;;;;;;;7.07;1.57;;;26.80;99.90;;;;;;4983292;28;20205;-72
2024/01/03 07:41:19;;;;;;;12.57;1.63;;;26.80;99.90;;;;;;4994444;28;20201;-71
2024/01/03 07:43:47;;;;;;;4.53;1.40;;;26.60;99.90;;;;;;4994450;28;20186;-71
2024/01/03 07:46:18;;;;;;;3.57;1.30;;;26.60;99.90;;;;;;4993389;28;20213;-72
2024/01/03 07:48:46;;;;;;;6.97;1.83;;;26.50;99.90;;;;;;4982377;28;20190;-71
2024/01/03 07:51:17;;;;;;;5.50;1.47;;;26.50;99.90;;;;;;4977866;28;20211;-71
2024/01/03 07:53:45;;;;;;;11.47;1.50;;;26.40;99.90;;;;;;4975038;28;20176;-73
2024/01/03 07:56:13;;;;;;;8.47;1.90;;;26.30;99.90;;;;;;4974861;28;20183;-73
2024/01/03 07:58:41;;;;;;;6.13;1.50;;;26.30;99.90;;;;;;4973510;28;20227;-73
2024/01/03 08:01:08;;;;;;;9.33;2.03;;;26.30;99.90;;;;;;4974721;28;20176;-71
2024/01/03 08:03:36;;;;;;;7.90;1.87;;;26.30;99.90;;;;;;4974777;28;20179;-71
2024/01/03 08:06:04;;;;;;;10.37;1.97;;;26.20;99.90;;;;;;4974592;28;20219;-71
2024/01/03 08:08:32;;;;;;;9.60;1.33;;;26.20;99.90;;;;;;4974758;28;20187;-72
2024/01/03 08:10:59;;;;;;;5.00;1.40;;;26.20;99.90;;;;;;4974487;28;20250;-72
2024/01/03 08:13:27;;;;;;;5.20;1.33;;;26.20;99.90;;;;;;4974707;28;20202;-71
2024/01/03 08:15:55;;;;;;;8.10;1.70;;;26.30;99.90;;;;;;4974414;28;20675;-72
2024/01/03 08:18:22;;;;;;;7.80;2.30;;;26.20;99.90;;;;;;4973060;28;20184;-72
2024/01/03 08:20:50;;;;;;;6.87;1.80;;;26.20;99.90;;;;;;4974327;28;20262;-73
2024/01/03 08:23:18;;;;;;;5.80;1.50;;;26.20;99.90;;;;;;4974518;28;20183;-73
2024/01/03 08:25:46;;;;;;;7.43;1.63;;;26.30;99.90;;;;;;4975829;28;20175;-72
2024/01/03 08:28:14;;;;;;;8.30;1.90;;;26.30;99.90;;;;;;4976103;28;20191;-73
2024/01/03 08:30:41;;;;;;;7.53;1.50;;;26.30;99.90;;;;;;4974430;28;20214;-73
2024/01/03 08:33:09;;;;;;;5.30;1.70;;;26.20;99.90;;;;;;4974370;28;20271;-72
2024/01/03 08:35:37;;;;;;;8.70;1.50;;;26.20;99.90;;;;;;4972647;28;20203;-72
2024/01/03 08:38:04;;;;;;;10.20;1.87;;;26.10;99.90;;;;;;4974179;28;20250;-72
2024/01/03 08:40:32;;;;;;;5.70;1.40;;;26.00;99.90;;;;;;4974334;28;20191;-72
2024/01/03 08:43:01;;;;;;;11.87;1.83;;;26.00;99.90;;;;;;4974397;28;20266;-72
2024/01/03 08:45:28;;;;;;;11.67;1.43;;;26.00;99.90;;;;;;4974304;28;20187;-72
2024/01/03 08:47:56;;;;;;;5.30;1.50;;;25.90;99.90;;;;;;4974063;28;20266;-71
2024/01/03 08:50:24;;;;;;;6.57;1.27;;;25.90;99.90;;;;;;4974079;28;20227;-71
2024/01/03 08:52:52;;;;;;;8.67;1.70;;;26.00;99.90;;;;;;4983830;28;20187;-71
2024/01/03 08:55:20;;;;;;;5.57;1.60;;;26.00;99.90;;;;;;4989612;28;20240;-71
2024/01/03 08:57:49;;;;;;;8.73;1.73;;;26.00;99.90;;;;;;4994831;28;20208;-71
2024/01/03 09:00:17;;;;;;;9.57;1.80;;;25.90;99.90;;;;;;4995648;28;20175;-71
2024/01/03 09:02:45;;;;;;;8.80;1.50;;;25.80;99.90;;;;;;4995475;28;20226;-70
2024/01/03 09:05:13;;;;;;;10.67;2.07;;;25.70;99.90;;;;;;4994011;28;20186;-73
2024/01/03 09:07:43;;;;;;;7.80;2.03;;;25.70;99.90;;;;;;4979933;28;20552;-72
2024/01/03 09:10:11;;;;;;;12.83;2.07;;;25.70;99.90;;;;;;4978104;28;20214;-70
2024/01/03 09:12:39;;;;;;;8.83;2.47;;;25.60;99.90;;;;;;4977765;28;20186;-69
2024/01/03 09:15:08;;;;;;;13.97;2.20;;;25.70;99.90;;;;;;4977873;28;20176;-70
2024/01/03 09:17:35;;;;;;;10.87;1.77;;;25.60;99.90;;;;;;4977808;28;20171;-70
2024/01/03 09:20:03;;;;;;;10.10;1.70;;;25.60;99.90;;;;;;4978099;28;20191;-70
2024/01/03 09:22:31;;;;;;;8.70;1.70;;;25.60;99.90;;;;;;4977782;28;20184;-70
2024/01/03 09:24:59;;;;;;;9.87;2.43;;;25.60;99.90;;;;;;4976577;28;20592;-70
2024/01/03 09:27:26;;;;;;;6.83;1.83;;;25.50;99.90;;;;;;4977404;28;20171;-70
2024/01/03 09:29:54;;;;;;;6.03;1.67;;;25.60;99.90;;;;;;4977437;28;20265;-70
2024/01/03 09:32:21;;;;;;;8.33;1.40;;;25.60;99.90;;;;;;4977854;28;20250;-70
2024/01/03 09:34:49;;;;;;;8.53;1.70;;;25.60;99.90;;;;;;4977721;28;20231;-71
2024/01/03 09:37:17;;;;;;;13.90;2.47;;;25.60;99.90;;;;;;4977306;28;20250;-71
2024/01/03 09:39:45;;;;;;;4.57;1.63;;;25.50;99.90;;;;;;4977954;28;20184;-71
2024/01/03 09:42:13;;;;;;;4.93;1.63;;;25.40;99.90;;;;;;4977368;28;20210;-69
2024/01/03 09:44:41;;;;;;;8.10;1.63;;;25.30;99.90;;;;;;4977430;28;20270;-70
2024/01/03 09:47:09;;;;;;;6.20;2.10;;;25.20;99.90;;;;;;4977245;28;20179;-70
2024/01/03 09:49:37;;;;;;;12.43;2.07;;;25.20;99.90;;;;;;4977290;28;20210;-71
2024/01/03 09:52:08;;;;;;;10.53;1.87;;;25.40;99.90;;;;;;4977350;28;20183;-70
2024/01/03 09:54:36;;;;;;;13.80;2.23;;;25.40;99.90;;;;;;4975871;28;20241;-70
2024/01/03 09:57:04;;;;;;;8.47;1.50;;;25.40;99.90;;;;;;4981999;28;20194;-70
2024/01/03 09:59:32;;;;;;;9.57;2.20;;;25.40;99.90;;;;;;4979536;28;20197;-69
2024/01/03 10:02:00;;;;;;;5.20;1.50;;;25.40;99.90;;;;;;4987228;28;20198;-70
2024/01/03 10:04:28;;;;;;;12.40;2.07;;;25.40;99.90;;;;;;4984562;28;20186;-71
2024/01/03 10:06:59;;;;;;;10.43;1.93;;;25.40;99.90;;;;;;4978614;28;20183;-71
2024/01/03 10:09:48;;;;;;;9.43;2.20;;;25.30;99.90;;;;;;4980886;28;20210;-71
2024/01/03 10:12:17;;;;;;;10.57;2.23;;;25.30;99.90;;;;;;4976985;28;20179;-72
2024/01/03 10:14:46;;;;;;;10.30;1.60;;;25.20;99.90;;;;;;4976983;28;20251;-71
2024/01/03 10:17:13;;;;;;;10.80;1.97;;;25.10;99.90;;;;;;4993046;28;20482;-71
2024/01/03 10:19:41;;;;;;;11.60;1.93;;;25.10;99.90;;;;;;4996669;28;20613;-71
2024/01/03 10:22:09;;;;;;;9.03;1.60;;;25.10;99.90;;;;;;4996130;28;20189;-71
2024/01/03 10:24:46;;;;;;;9.80;1.90;;;25.10;99.90;;;;;;4995712;28;20171;-70
2024/01/03 10:27:13;;;;;;;10.40;1.80;;;25.00;99.90;;;;;;4984035;28;20190;-70
2024/01/03 10:29:41;;;;;;;9.83;1.80;;;25.00;99.90;;;;;;4988946;28;20221;-71
2024/01/03 10:32:10;;;;;;;6.27;1.90;;;24.80;99.90;;;;;;4995916;28;20175;-71
2024/01/03 10:34:38;;;;;;;9.23;2.33;;;24.70;99.90;;;;;;4995801;28;20186;-71
2024/01/03 10:37:06;;;;;;;12.97;1.60;;;24.50;99.90;;;;;;4995638;28;20258;-72
2024/01/03 10:39:35;;;;;;;15.17;2.77;;;24.50;99.90;;;;;;4995817;28;20587;-71
2024/01/03 10:42:07;;;;;;;10.10;2.00;;;24.50;99.90;;;;;;4995985;28;20253;-71
2024/01/03 10:44:36;;;;;;;9.87;1.57;;;24.40;99.90;;;;;;4995792;28;20175;-72
2024/01/03 10:47:04;;;;;;;6.47;1.30;;;24.40;99.90;;;;;;4994140;28;20202;-72
2024/01/03 10:49:31;;;;;;;14.93;1.90;;;24.30;99.90;;;;;;4995627;28;20178;-71
2024/01/03 10:52:03;;;;;;;13.37;2.20;;;24.30;99.90;;;;;;4994240;28;20687;-71
2024/01/03 10:54:43;;;;;;;7.30;1.90;;;24.20;99.90;;;;;;4995551;28;20640;-71
2024/01/03 10:57:14;;;;;;;8.37;1.80;;;24.20;99.90;;;;;;4995469;28;20662;-71
2024/01/03 10:59:53;;;;;;;6.93;1.83;;;24.10;99.90;;;;;;4988948;28;20648;-71
2024/01/03 11:02:37;;;;;;;7.60;2.20;;;24.10;99.90;;;;;;4995261;28;20638;-71
2024/01/03 11:05:33;;;;;;;12.47;2.07;;;24.10;99.90;;;;;;4993027;28;20513;-71
2024/01/03 11:08:07;;;;;;;8.17;1.83;;;24.00;99.90;;;;;;4993830;28;20179;-71
2024/01/03 11:10:54;;;;;;;7.47;1.80;;;23.90;99.90;;;;;;4994868;28;20202;-70
2024/01/03 11:13:32;;;;;;;6.90;2.30;;;23.80;99.90;;;;;;4994033;28;20285;-71
2024/01/03 11:16:02;;;;;;;14.10;2.63;;;23.80;99.90;;;;;;4995249;28;20182;-70
2024/01/03 11:18:41;;;;;;;13.10;1.80;;;23.70;99.90;;;;;;4995089;28;20186;-69
2024/01/03 11:21:28;;;;;;;7.70;1.97;;;23.70;99.90;;;;;;4994801;28;20256;-69
2024/01/03 11:23:56;;;;;;;8.33;1.90;;;23.60;99.90;;;;;;4994995;28;20585;-70
2024/01/03 11:29:48;;;;;;;11.70;2.03;;;23.50;99.90;;;;;;4994942;28;20588;-69
2024/01/03 11:32:27;;;;;;;11.63;2.07;;;23.50;99.90;;;;;;4993366;28;20194;-69
2024/01/03 11:34:55;;;;;;;11.30;2.00;;;23.40;99.90;;;;;;4994764;28;20179;-69
2024/01/03 11:37:26;;;;;;;9.17;1.73;;;23.40;99.90;;;;;;4994378;28;20249;-69
2024/01/03 11:39:55;;;;;;;11.10;1.87;;;23.30;99.90;;;;;;4994564;28;20178;-69
2024/01/03 11:42:38;;;;;;;7.87;1.67;;;23.40;99.90;;;;;;4994781;28;20680;-70
2024/01/03 11:45:08;;;;;;;11.10;2.73;;;23.50;99.90;;;;;;4994742;28;20225;-70
2024/01/03 11:47:43;;;;;;;11.63;2.00;;;23.40;99.90;;;;;;4994329;28;20636;-70
2024/01/03 11:50:15;;;;;;;9.07;2.23;;;23.30;99.90;;;;;;4994391;28;20205;-69
2024/01/03 11:52:48;;;;;;;10.73;2.23;;;23.30;99.90;;;;;;4994456;28;20209;-70
2024/01/03 11:55:18;;;;;;;14.73;2.43;;;23.40;99.90;;;;;;4994391;28;20175;-70
2024/01/03 11:57:49;;;;;;;9.20;1.73;;;23.50;99.90;;;;;;4994446;28;20174;-72
2024/01/03 12:00:23;;;;;;;8.57;2.07;;;23.60;99.90;;;;;;4994304;28;20171;-70
2024/01/03 12:02:58;;;;;;;12.37;1.80;;;23.50;99.90;;;;;;4994502;28;20214;-70
2024/01/03 12:05:29;;;;;;;12.93;2.20;;;23.40;99.90;;;;;;4994109;28;20182;-71
2024/01/03 12:07:58;;;;;;;7.47;2.00;;;23.40;99.90;;;;;;4994065;28;20185;-71
2024/01/03 12:10:28;;;;;;;11.00;2.40;;;23.40;99.90;;;;;;4992902;28;20222;-71
2024/01/03 12:12:56;;;;;;;12.20;2.17;;;23.30;99.90;;;;;;4994300;28;20211;-71
2024/01/03 12:15:28;;;;;;;9.47;1.73;;;23.20;99.90;;;;;;4994232;28;20178;-71
2024/01/03 12:18:06;;;;;;;9.93;2.00;;;23.20;99.90;;;;;;4993899;28;20175;-71
2024/01/03 12:20:34;;;;;;;10.23;2.23;;;23.20;99.90;;;;;;4994030;28;20175;-69
2024/01/03 12:23:15;;;;;;;15.40;2.10;;;23.20;99.90;;;;;;4992589;28;20583;-69
2024/01/03 12:25:43;;;;;;;9.47;2.77;;;23.10;99.90;;;;;;4994078;28;20182;-69
2024/01/03 12:28:13;;;;;;;11.10;1.80;;;23.20;99.90;;;;;;4993816;28;20232;-69
2024/01/03 12:30:40;;;;;;;8.27;1.83;;;23.10;99.90;;;;;;4993752;28;20268;-69
2024/01/03 12:33:15;;;;;;;6.67;1.87;;;23.10;99.90;;;;;;4993250;28;20182;-69
2024/01/03 12:35:47;;;;;;;10.93;2.70;;;23.00;99.90;;;;;;4993575;28;20203;-70
2024/01/03 12:38:15;;;;;;;11.93;2.73;;;23.10;99.90;;;;;;4994166;28;20641;-69
2024/01/03 12:40:47;;;;;;;9.67;2.23;;;23.00;99.90;;;;;;4993895;28;20321;-69
2024/01/03 12:43:14;;;;;;;6.67;1.57;;;23.00;99.90;;;;;;4992482;28;20538;-69
2024/01/03 12:45:42;;;;;;;8.83;2.17;;;23.00;99.90;;;;;;4993704;28;20229;-69
2024/01/03 12:48:10;;;;;;;10.00;1.87;;;23.00;99.90;;;;;;4993531;28;20184;-69
2024/01/03 12:50:40;;;;;;;6.93;1.83;;;23.00;99.90;;;;;;4993742;28;20281;-69
2024/01/03 12:53:07;;;;;;;10.17;2.30;;;23.00;99.90;;;;;;4993599;28;20258;-69
2024/01/03 12:55:35;;;;;;;8.33;2.10;;;23.00;99.90;;;;;;4993530;28;20265;-71
2024/01/03 12:58:03;;;;;;;12.67;2.37;;;23.00;99.90;;;;;;4993601;28;20616;-69